createdAt,value
2017-06-22T00:00:57.705Z,0
2017-06-22T00:01:59.418Z,0
2017-06-22T00:03:01.085Z,0
2017-06-22T00:04:02.739Z,0
2017-06-22T00:05:04.455Z,0
2017-06-22T00:06:06.124Z,0
2017-06-22T00:07:07.770Z,0
2017-06-22T00:08:09.456Z,0
2017-06-22T00:09:11.111Z,0
2017-06-22T00:10:12.787Z,0
2017-06-22T00:11:14.466Z,0
2017-06-22T00:12:16.134Z,0
2017-06-22T00:13:17.791Z,0
2017-06-22T00:14:19.500Z,0
2017-06-22T00:15:21.163Z,0
2017-06-22T00:16:22.826Z,0
2017-06-22T00:17:24.689Z,0
2017-06-22T00:18:26.365Z,0
2017-06-22T00:19:28.026Z,0
2017-06-22T00:20:29.754Z,0
2017-06-22T00:21:31.409Z,0
2017-06-22T00:22:33.071Z,0
2017-06-22T00:23:34.748Z,0
2017-06-22T00:24:36.395Z,0
2017-06-22T00:25:38.041Z,0
2017-06-22T00:26:39.714Z,0
2017-06-22T00:27:41.389Z,0
2017-06-22T00:28:43.053Z,0
2017-06-22T00:29:44.741Z,0
2017-06-22T00:30:46.415Z,0
2017-06-22T00:31:48.096Z,0
2017-06-22T00:32:49.798Z,0
2017-06-22T00:33:51.468Z,0
2017-06-22T00:34:53.122Z,0
2017-06-22T00:35:55.350Z,0
2017-06-22T00:36:56.983Z,0
2017-06-22T00:37:58.687Z,0
2017-06-22T00:39:00.344Z,0
2017-06-22T00:40:02.007Z,0
2017-06-22T00:41:03.681Z,0
2017-06-22T00:42:05.336Z,0
2017-06-22T00:43:06.989Z,0
2017-06-22T00:44:08.734Z,0
2017-06-22T00:45:10.352Z,0
2017-06-22T00:46:12.016Z,0
2017-06-22T00:47:13.702Z,0
2017-06-22T00:48:15.364Z,0
2017-06-22T00:49:17.032Z,0
2017-06-22T00:50:18.684Z,0
2017-06-22T00:51:20.361Z,0
2017-06-22T00:52:22.031Z,0
2017-06-22T00:53:23.695Z,0
2017-06-22T00:54:25.372Z,0
2017-06-22T00:55:27.038Z,0
2017-06-22T00:56:28.704Z,0
2017-06-22T00:57:30.372Z,0
2017-06-22T00:58:32.043Z,0
2017-06-22T00:59:33.734Z,0
2017-06-22T01:00:35.366Z,0
2017-06-22T01:01:37.088Z,0
2017-06-22T01:02:39.407Z,0
2017-06-22T01:03:41.050Z,0
2017-06-22T01:04:42.746Z,0
2017-06-22T01:05:44.454Z,0
2017-06-22T01:06:46.103Z,0
2017-06-22T01:07:47.913Z,0
2017-06-22T01:08:49.627Z,0
2017-06-22T01:09:51.325Z,0
2017-06-22T01:10:52.997Z,0
2017-06-22T01:11:55.114Z,0
2017-06-22T01:12:56.786Z,0
2017-06-22T01:13:58.476Z,0
2017-06-22T01:15:00.535Z,0
2017-06-22T01:16:02.194Z,0
2017-06-22T01:17:03.859Z,0
2017-06-22T01:18:05.543Z,0
2017-06-22T01:19:07.208Z,0
2017-06-22T01:20:08.867Z,0
2017-06-22T01:21:10.538Z,0
2017-06-22T01:22:12.195Z,0
2017-06-22T01:23:14.404Z,0
2017-06-22T01:24:16.027Z,0
2017-06-22T01:25:17.723Z,0
2017-06-22T01:26:19.407Z,0
2017-06-22T01:27:21.070Z,0
2017-06-22T01:28:22.728Z,0
2017-06-22T01:29:24.454Z,0
2017-06-22T01:30:26.121Z,0
2017-06-22T01:31:27.806Z,0
2017-06-22T01:32:29.559Z,0
2017-06-22T01:33:31.197Z,0
2017-06-22T01:34:33.823Z,0
2017-06-22T01:35:35.432Z,0
2017-06-22T01:36:37.074Z,0
2017-06-22T01:37:38.742Z,0
2017-06-22T01:38:41.293Z,0
2017-06-22T01:39:42.941Z,0
2017-06-22T01:40:44.671Z,0
2017-06-22T01:41:48.012Z,0
2017-06-22T01:42:49.659Z,0
2017-06-22T01:43:51.320Z,0
2017-06-22T01:44:53.476Z,0
2017-06-22T01:45:55.181Z,0
2017-06-22T01:46:57.276Z,0
2017-06-22T01:47:58.949Z,0
2017-06-22T01:49:00.579Z,0
2017-06-22T01:50:02.502Z,0
2017-06-22T01:51:04.187Z,0
2017-06-22T01:52:05.850Z,0
2017-06-22T01:53:07.517Z,0
2017-06-22T01:54:09.877Z,0
2017-06-22T01:55:11.526Z,0
2017-06-22T01:56:13.178Z,0
2017-06-22T01:57:14.903Z,0
2017-06-22T01:58:17.372Z,0
2017-06-22T01:59:19.082Z,0
2017-06-22T02:00:20.736Z,0
2017-06-22T02:01:22.397Z,0
2017-06-22T02:02:24.044Z,0
2017-06-22T02:03:25.677Z,0
2017-06-22T02:04:27.376Z,0
2017-06-22T02:05:29.063Z,0
2017-06-22T02:06:30.738Z,0
2017-06-22T02:07:32.599Z,0
2017-06-22T02:08:34.881Z,0
2017-06-22T02:09:36.547Z,0
2017-06-22T02:10:38.212Z,0
2017-06-22T02:11:39.867Z,0
2017-06-22T02:12:41.584Z,0
2017-06-22T02:13:43.236Z,0
2017-06-22T02:14:44.891Z,0
2017-06-22T02:15:46.551Z,0
2017-06-22T02:16:48.218Z,0
2017-06-22T02:17:49.857Z,0
2017-06-22T02:18:51.506Z,0
2017-06-22T02:19:53.215Z,0
2017-06-22T02:20:54.865Z,0
2017-06-22T02:21:56.517Z,0
2017-06-22T02:22:58.177Z,0
2017-06-22T02:23:59.817Z,0
2017-06-22T02:25:01.486Z,0
2017-06-22T02:26:03.159Z,0
2017-06-22T02:27:05.365Z,0
2017-06-22T02:28:07.067Z,0
2017-06-22T02:29:08.714Z,0
2017-06-22T02:30:10.377Z,0
2017-06-22T02:31:12.328Z,0
2017-06-22T02:32:13.967Z,0
2017-06-22T02:33:15.613Z,0
2017-06-22T02:34:17.323Z,0
2017-06-22T02:35:18.978Z,0
2017-06-22T02:36:20.614Z,0
2017-06-22T02:37:22.289Z,4
2017-06-22T02:38:23.948Z,4
2017-06-22T02:39:25.626Z,4
2017-06-22T02:40:27.310Z,0
2017-06-22T02:41:28.981Z,4
2017-06-22T02:42:30.632Z,4
2017-06-22T02:43:32.339Z,4
2017-06-22T02:44:34.018Z,4
2017-06-22T02:45:35.682Z,4
2017-06-22T02:46:37.395Z,8
2017-06-22T02:47:39.042Z,8
2017-06-22T02:48:40.690Z,8
2017-06-22T02:49:42.375Z,8
2017-06-22T02:50:44.015Z,12
2017-06-22T02:51:45.676Z,12
2017-06-22T02:52:47.375Z,16
2017-06-22T02:53:49.030Z,16
2017-06-22T02:54:50.685Z,16
2017-06-22T02:55:52.411Z,20
2017-06-22T02:56:54.087Z,20
2017-06-22T02:57:55.765Z,24
2017-06-22T02:58:57.446Z,24
2017-06-22T02:59:59.081Z,28
2017-06-22T03:01:00.737Z,28
2017-06-22T03:02:02.424Z,32
2017-06-22T03:03:04.065Z,40
2017-06-22T03:04:05.743Z,40
2017-06-22T03:05:07.458Z,44
2017-06-22T03:06:09.142Z,48
2017-06-22T03:07:10.817Z,52
2017-06-22T03:08:12.516Z,56
2017-06-22T03:09:14.221Z,60
2017-06-22T03:10:15.887Z,64
2017-06-22T03:11:17.594Z,68
2017-06-22T03:12:19.239Z,72
2017-06-22T03:13:20.901Z,80
2017-06-22T03:14:22.622Z,84
2017-06-22T03:15:24.285Z,88
2017-06-22T03:16:25.932Z,96
2017-06-22T03:17:27.598Z,104
2017-06-22T03:18:29.248Z,112
2017-06-22T03:19:30.908Z,120
2017-06-22T03:20:32.605Z,124
2017-06-22T03:21:34.270Z,132
2017-06-22T03:22:35.938Z,140
2017-06-22T03:23:37.614Z,144
2017-06-22T03:24:39.303Z,156
2017-06-22T03:25:40.964Z,160
2017-06-22T03:26:42.650Z,168
2017-06-22T03:27:44.321Z,180
2017-06-22T03:28:45.970Z,184
2017-06-22T03:29:47.657Z,196
2017-06-22T03:30:49.313Z,208
2017-06-22T03:31:50.967Z,220
2017-06-22T03:32:52.699Z,232
2017-06-22T03:33:54.355Z,244
2017-06-22T03:34:56.017Z,256
2017-06-22T03:35:57.707Z,264
2017-06-22T03:36:59.366Z,272
2017-06-22T03:38:01.941Z,280
2017-06-22T03:39:03.584Z,288
2017-06-22T03:40:05.260Z,300
2017-06-22T03:41:06.946Z,312
2017-06-22T03:42:08.629Z,324
2017-06-22T03:43:10.274Z,336
2017-06-22T03:44:11.961Z,348
2017-06-22T03:45:13.595Z,364
2017-06-22T03:46:15.262Z,380
2017-06-22T03:47:16.951Z,388
2017-06-22T03:48:18.615Z,400
2017-06-22T03:49:20.274Z,408
2017-06-22T03:50:21.933Z,420
2017-06-22T03:51:23.579Z,436
2017-06-22T03:52:25.226Z,452
2017-06-22T03:53:26.904Z,464
2017-06-22T03:54:28.584Z,480
2017-06-22T03:55:30.257Z,492
2017-06-22T03:56:32.940Z,504
2017-06-22T03:57:34.591Z,512
2017-06-22T03:58:36.240Z,520
2017-06-22T03:59:37.933Z,528
2017-06-22T04:00:39.613Z,536
2017-06-22T04:01:41.281Z,540
2017-06-22T04:02:42.972Z,540
2017-06-22T04:03:44.659Z,540
2017-06-22T04:04:46.295Z,540
2017-06-22T04:05:48.006Z,540
2017-06-22T04:06:50.476Z,536
2017-06-22T04:07:52.178Z,536
2017-06-22T04:08:53.847Z,540
2017-06-22T04:09:55.492Z,548
2017-06-22T04:10:57.210Z,556
2017-06-22T04:11:58.870Z,560
2017-06-22T04:13:00.529Z,564
2017-06-22T04:14:02.267Z,564
2017-06-22T04:15:03.910Z,572
2017-06-22T04:16:05.582Z,572
2017-06-22T04:17:07.320Z,580
2017-06-22T04:18:08.993Z,592
2017-06-22T04:19:10.702Z,600
2017-06-22T04:20:12.369Z,612
2017-06-22T04:21:14.020Z,624
2017-06-22T04:22:15.708Z,636
2017-06-22T04:23:17.493Z,644
2017-06-22T04:24:19.159Z,660
2017-06-22T04:25:20.811Z,672
2017-06-22T04:26:22.521Z,680
2017-06-22T04:27:24.168Z,692
2017-06-22T04:28:25.847Z,708
2017-06-22T04:29:27.555Z,732
2017-06-22T04:30:29.221Z,748
2017-06-22T04:31:30.886Z,768
2017-06-22T04:32:32.579Z,800
2017-06-22T04:33:34.933Z,828
2017-06-22T04:34:36.603Z,852
2017-06-22T04:35:38.822Z,876
2017-06-22T04:36:40.523Z,884
2017-06-22T04:37:42.352Z,888
2017-06-22T04:38:44.041Z,884
2017-06-22T04:39:45.735Z,888
2017-06-22T04:40:47.460Z,896
2017-06-22T04:41:49.165Z,900
2017-06-22T04:42:50.847Z,912
2017-06-22T04:43:52.590Z,928
2017-06-22T04:44:54.265Z,932
2017-06-22T04:45:55.951Z,968
2017-06-22T04:46:57.653Z,996
2017-06-22T04:47:59.320Z,1036
2017-06-22T04:49:00.997Z,1080
2017-06-22T04:50:02.750Z,1124
2017-06-22T04:51:04.422Z,1192
2017-06-22T04:52:06.096Z,1248
2017-06-22T04:53:07.833Z,1292
2017-06-22T04:54:09.496Z,1316
2017-06-22T04:55:11.168Z,1304
2017-06-22T04:56:12.962Z,1316
2017-06-22T04:57:14.629Z,1348
2017-06-22T04:58:16.352Z,1364
2017-06-22T04:59:18.020Z,1348
2017-06-22T05:00:19.693Z,1348
2017-06-22T05:01:21.356Z,1336
2017-06-22T05:02:23.047Z,1296
2017-06-22T05:03:24.686Z,1252
2017-06-22T05:04:26.339Z,1192
2017-06-22T05:05:28.003Z,1164
2017-06-22T05:06:29.663Z,1132
2017-06-22T05:07:31.333Z,1140
2017-06-22T05:08:33.940Z,1168
2017-06-22T05:09:35.597Z,1208
2017-06-22T05:10:37.276Z,1248
2017-06-22T05:11:38.931Z,1284
2017-06-22T05:12:40.592Z,1312
2017-06-22T05:13:42.295Z,1372
2017-06-22T05:14:43.957Z,1484
2017-06-22T05:15:45.613Z,1604
2017-06-22T05:16:47.299Z,1608
2017-06-22T05:17:48.952Z,1460
2017-06-22T05:18:50.626Z,1340
2017-06-22T05:19:52.316Z,1256
2017-06-22T05:20:53.976Z,1244
2017-06-22T05:21:55.660Z,1228
2017-06-22T05:22:57.359Z,1248
2017-06-22T05:23:59.017Z,1248
2017-06-22T05:25:00.715Z,1288
2017-06-22T05:26:02.408Z,1284
2017-06-22T05:27:04.084Z,1288
2017-06-22T05:28:06.468Z,1348
2017-06-22T05:29:08.160Z,1372
2017-06-22T05:30:09.824Z,1412
2017-06-22T05:31:11.490Z,1432
2017-06-22T05:32:13.223Z,1444
2017-06-22T05:33:14.874Z,1460
2017-06-22T05:34:16.539Z,1472
2017-06-22T05:35:18.267Z,1472
2017-06-22T05:36:19.939Z,1520
2017-06-22T05:37:21.606Z,1528
2017-06-22T05:38:23.958Z,1536
2017-06-22T05:39:25.647Z,1536
2017-06-22T05:40:27.352Z,1540
2017-06-22T05:41:29.033Z,1544
2017-06-22T05:42:30.726Z,1556
2017-06-22T05:43:32.433Z,1556
2017-06-22T05:44:34.101Z,1568
2017-06-22T05:45:35.794Z,1572
2017-06-22T05:46:37.508Z,1584
2017-06-22T05:47:39.185Z,1600
2017-06-22T05:48:40.845Z,1608
2017-06-22T05:49:42.490Z,1628
2017-06-22T05:50:44.148Z,1644
2017-06-22T05:51:45.824Z,1652
2017-06-22T05:52:47.510Z,1668
2017-06-22T05:53:49.170Z,1684
2017-06-22T05:54:50.871Z,1688
2017-06-22T05:55:52.549Z,1692
2017-06-22T05:56:54.986Z,1696
2017-06-22T05:57:56.647Z,1692
2017-06-22T05:58:58.345Z,1684
2017-06-22T06:00:00.028Z,1684
2017-06-22T06:01:01.717Z,1696
2017-06-22T06:02:03.385Z,1696
2017-06-22T06:03:05.071Z,1696
2017-06-22T06:04:06.753Z,1700
2017-06-22T06:05:08.441Z,1708
2017-06-22T06:06:10.128Z,1720
2017-06-22T06:07:11.795Z,1736
2017-06-22T06:08:13.455Z,1760
2017-06-22T06:09:15.122Z,1776
2017-06-22T06:10:16.830Z,1792
2017-06-22T06:11:18.512Z,1804
2017-06-22T06:12:20.145Z,1808
2017-06-22T06:13:21.840Z,1808
2017-06-22T06:14:23.499Z,1800
2017-06-22T06:15:25.196Z,1792
2017-06-22T06:16:27.523Z,1792
2017-06-22T06:17:29.192Z,1784
2017-06-22T06:18:30.910Z,1796
2017-06-22T06:19:32.616Z,1804
2017-06-22T06:20:34.272Z,1784
2017-06-22T06:21:36.016Z,1788
2017-06-22T06:22:37.715Z,1796
2017-06-22T06:23:39.555Z,1792
2017-06-22T06:24:41.205Z,1800
2017-06-22T06:25:42.920Z,1816
2017-06-22T06:26:44.615Z,1808
2017-06-22T06:27:46.298Z,1820
2017-06-22T06:28:47.999Z,1828
2017-06-22T06:29:49.681Z,1840
2017-06-22T06:30:51.355Z,1844
2017-06-22T06:31:53.037Z,1844
2017-06-22T06:32:54.729Z,1852
2017-06-22T06:33:56.384Z,1856
2017-06-22T06:34:58.989Z,1852
2017-06-22T06:36:00.650Z,1864
2017-06-22T06:37:02.346Z,1876
2017-06-22T06:38:04.024Z,1892
2017-06-22T06:39:05.703Z,1900
2017-06-22T06:40:07.401Z,1924
2017-06-22T06:41:09.074Z,1940
2017-06-22T06:42:10.753Z,1980
2017-06-22T06:43:12.448Z,1988
2017-06-22T06:44:14.120Z,1960
2017-06-22T06:45:15.805Z,1976
2017-06-22T06:46:17.464Z,1980
2017-06-22T06:47:19.175Z,1988
2017-06-22T06:48:20.849Z,1992
2017-06-22T06:49:22.577Z,2004
2017-06-22T06:50:24.240Z,2012
2017-06-22T06:51:25.931Z,2008
2017-06-22T06:52:27.611Z,2012
2017-06-22T06:53:29.293Z,1988
2017-06-22T06:54:30.975Z,1972
2017-06-22T06:55:32.704Z,2008
2017-06-22T06:56:34.382Z,2008
2017-06-22T06:57:36.134Z,2012
2017-06-22T06:58:37.864Z,2008
2017-06-22T06:59:39.544Z,1988
2017-06-22T07:00:41.239Z,1976
2017-06-22T07:01:42.934Z,1980
2017-06-22T07:02:44.611Z,1984
2017-06-22T07:03:46.292Z,2012
2017-06-22T07:04:47.987Z,2028
2017-06-22T07:05:49.690Z,2052
2017-06-22T07:06:51.335Z,2076
2017-06-22T07:07:53.067Z,2088
2017-06-22T07:08:54.723Z,2092
2017-06-22T07:09:56.385Z,2096
2017-06-22T07:10:58.124Z,2104
2017-06-22T07:11:59.850Z,2112
2017-06-22T07:13:01.547Z,2136
2017-06-22T07:14:03.279Z,2108
2017-06-22T07:15:04.965Z,2148
2017-06-22T07:16:06.632Z,2168
2017-06-22T07:17:08.322Z,2184
2017-06-22T07:18:10.029Z,2200
2017-06-22T07:19:11.693Z,2228
2017-06-22T07:20:13.405Z,2256
2017-06-22T07:21:16.025Z,2284
2017-06-22T07:22:17.750Z,2304
2017-06-22T07:23:19.423Z,2300
2017-06-22T07:24:21.187Z,2292
2017-06-22T07:25:22.914Z,2280
2017-06-22T07:26:24.605Z,2268
2017-06-22T07:27:26.295Z,2256
2017-06-22T07:28:28.002Z,2232
2017-06-22T07:29:29.670Z,2300
2017-06-22T07:30:31.361Z,2364
2017-06-22T07:31:33.127Z,2400
2017-06-22T07:32:34.797Z,2488
2017-06-22T07:33:36.499Z,2600
2017-06-22T07:34:38.195Z,2696
2017-06-22T07:35:39.881Z,2820
2017-06-22T07:36:41.646Z,3124
2017-06-22T07:37:43.368Z,3528
2017-06-22T07:38:45.056Z,3552
2017-06-22T07:39:46.735Z,3436
2017-06-22T07:40:48.462Z,3132
2017-06-22T07:41:50.144Z,3028
2017-06-22T07:42:51.857Z,3288
2017-06-22T07:43:53.598Z,2940
2017-06-22T07:44:55.270Z,3000
2017-06-22T07:45:56.956Z,2964
2017-06-22T07:46:58.628Z,2648
2017-06-22T07:48:00.289Z,2588
2017-06-22T07:49:01.957Z,2784
2017-06-22T07:50:03.635Z,2864
2017-06-22T07:51:05.301Z,2940
2017-06-22T07:52:06.972Z,2788
2017-06-22T07:53:08.669Z,2592
2017-06-22T07:54:10.334Z,2432
2017-06-22T07:55:11.994Z,2532
2017-06-22T07:56:13.703Z,2620
2017-06-22T07:57:15.391Z,2656
2017-06-22T07:58:17.071Z,2644
2017-06-22T07:59:18.793Z,2568
2017-06-22T08:00:20.462Z,2520
2017-06-22T08:01:22.233Z,2492
2017-06-22T08:02:23.923Z,2560
2017-06-22T08:03:25.594Z,2664
2017-06-22T08:04:27.264Z,3008
2017-06-22T08:05:28.945Z,3676
2017-06-22T08:06:30.614Z,4240
2017-06-22T08:07:32.341Z,4212
2017-06-22T08:08:34.037Z,3948
2017-06-22T08:09:35.741Z,3688
2017-06-22T08:10:37.447Z,3084
2017-06-22T08:11:39.164Z,2800
2017-06-22T08:12:40.864Z,2668
2017-06-22T08:13:42.602Z,2272
2017-06-22T08:14:44.272Z,2328
2017-06-22T08:15:45.974Z,2308
2017-06-22T08:16:47.690Z,2444
2017-06-22T08:17:49.362Z,2560
2017-06-22T08:18:51.050Z,2568
2017-06-22T08:19:52.736Z,2528
2017-06-22T08:20:54.391Z,2516
2017-06-22T08:21:56.055Z,2512
2017-06-22T08:22:57.777Z,2476
2017-06-22T08:23:59.435Z,2452
2017-06-22T08:25:01.157Z,2444
2017-06-22T08:26:02.900Z,2440
2017-06-22T08:27:04.595Z,2436
2017-06-22T08:28:06.293Z,2436
2017-06-22T08:29:08.046Z,2444
2017-06-22T08:30:09.718Z,2452
2017-06-22T08:31:11.389Z,2468
2017-06-22T08:32:13.115Z,2480
2017-06-22T08:33:14.785Z,2500
2017-06-22T08:34:16.469Z,2524
2017-06-22T08:35:18.298Z,2544
2017-06-22T08:36:20.051Z,2560
2017-06-22T08:37:21.781Z,2580
2017-06-22T08:38:23.522Z,2592
2017-06-22T08:39:25.210Z,2608
2017-06-22T08:40:26.879Z,2612
2017-06-22T08:41:28.565Z,2624
2017-06-22T08:42:30.248Z,2648
2017-06-22T08:43:31.918Z,2672
2017-06-22T08:44:33.626Z,2688
2017-06-22T08:45:35.301Z,2692
2017-06-22T08:46:36.970Z,2704
2017-06-22T08:47:38.711Z,2712
2017-06-22T08:48:40.363Z,2736
2017-06-22T08:49:42.118Z,2776
2017-06-22T08:50:43.822Z,2808
2017-06-22T08:51:45.805Z,2840
2017-06-22T08:52:47.502Z,2872
2017-06-22T08:53:49.187Z,2896
2017-06-22T08:54:50.877Z,2924
2017-06-22T08:55:52.606Z,2952
2017-06-22T08:56:54.275Z,2960
2017-06-22T08:57:56.252Z,2964
2017-06-22T08:58:58.162Z,2972
2017-06-22T09:00:00.567Z,2996
2017-06-22T09:01:02.230Z,3036
2017-06-22T09:02:03.945Z,3040
2017-06-22T09:03:05.631Z,3040
2017-06-22T09:04:07.350Z,3044
2017-06-22T09:05:09.027Z,3040
2017-06-22T09:06:11.290Z,3032
2017-06-22T09:07:13.067Z,3060
2017-06-22T09:08:14.736Z,3100
2017-06-22T09:09:16.422Z,3152
2017-06-22T09:10:18.221Z,3176
2017-06-22T09:11:19.896Z,3204
2017-06-22T09:12:21.656Z,3212
2017-06-22T09:13:23.425Z,3248
2017-06-22T09:14:25.097Z,3292
2017-06-22T09:15:27.506Z,3340
2017-06-22T09:16:29.177Z,3356
2017-06-22T09:17:30.855Z,3332
2017-06-22T09:18:33.102Z,3368
2017-06-22T09:19:34.781Z,3428
2017-06-22T09:20:36.489Z,3468
2017-06-22T09:21:38.349Z,3500
2017-06-22T09:22:40.522Z,3532
2017-06-22T09:23:42.205Z,3540
2017-06-22T09:24:43.881Z,3524
2017-06-22T09:25:45.571Z,3524
2017-06-22T09:26:47.331Z,3524
2017-06-22T09:27:49.020Z,3520
2017-06-22T09:28:50.700Z,3528
2017-06-22T09:29:52.372Z,3572
2017-06-22T09:30:54.048Z,3612
2017-06-22T09:31:55.722Z,3636
2017-06-22T09:32:57.450Z,3636
2017-06-22T09:33:59.178Z,3692
2017-06-22T09:35:00.882Z,3740
2017-06-22T09:36:02.582Z,3700
2017-06-22T09:37:04.398Z,3724
2017-06-22T09:38:06.113Z,3776
2017-06-22T09:39:07.901Z,3712
2017-06-22T09:40:10.211Z,3712
2017-06-22T09:41:11.902Z,3748
2017-06-22T09:42:13.587Z,3764
2017-06-22T09:43:15.274Z,3712
2017-06-22T09:44:17.664Z,3692
2017-06-22T09:45:19.344Z,3728
2017-06-22T09:46:21.015Z,3796
2017-06-22T09:47:22.708Z,3824
2017-06-22T09:48:24.598Z,3916
2017-06-22T09:49:26.291Z,3980
2017-06-22T09:50:28.027Z,4024
2017-06-22T09:51:29.782Z,4080
2017-06-22T09:52:31.645Z,4168
2017-06-22T09:53:33.375Z,4304
2017-06-22T09:54:35.053Z,4492
2017-06-22T09:55:36.731Z,4692
2017-06-22T09:56:38.456Z,5016
2017-06-22T09:57:40.149Z,5336
2017-06-22T09:58:42.054Z,5384
2017-06-22T09:59:43.731Z,5680
2017-06-22T10:00:45.422Z,5776
2017-06-22T10:01:47.207Z,5724
2017-06-22T10:02:48.923Z,5612
2017-06-22T10:03:50.632Z,5396
2017-06-22T10:04:52.297Z,5200
2017-06-22T10:05:54.454Z,5304
2017-06-22T10:06:56.356Z,5388
2017-06-22T10:07:58.075Z,5144
2017-06-22T10:08:59.754Z,5116
2017-06-22T10:10:01.549Z,5200
2017-06-22T10:11:03.233Z,5164
2017-06-22T10:12:04.897Z,5192
2017-06-22T10:13:06.548Z,5252
2017-06-22T10:14:08.234Z,5264
2017-06-22T10:15:09.899Z,5216
2017-06-22T10:16:11.577Z,5188
2017-06-22T10:17:13.258Z,5148
2017-06-22T10:18:14.944Z,5172
2017-06-22T10:19:16.587Z,5160
2017-06-22T10:20:18.304Z,5132
2017-06-22T10:21:19.956Z,5108
2017-06-22T10:22:21.617Z,5200
2017-06-22T10:23:23.331Z,5164
2017-06-22T10:24:25.014Z,5216
2017-06-22T10:25:26.694Z,5368
2017-06-22T10:26:28.424Z,5388
2017-06-22T10:27:30.119Z,5484
2017-06-22T10:28:31.805Z,5656
2017-06-22T10:29:33.505Z,5860
2017-06-22T10:30:35.169Z,6100
2017-06-22T10:31:36.844Z,6308
2017-06-22T10:32:38.559Z,6532
2017-06-22T10:33:40.220Z,6684
2017-06-22T10:34:41.902Z,6788
2017-06-22T10:35:43.728Z,6788
2017-06-22T10:36:45.404Z,6788
2017-06-22T10:37:47.081Z,6792
2017-06-22T10:38:48.771Z,6752
2017-06-22T10:39:50.441Z,6820
2017-06-22T10:40:52.095Z,7040
2017-06-22T10:41:53.807Z,7064
2017-06-22T10:42:55.475Z,7040
2017-06-22T10:43:57.141Z,7428
2017-06-22T10:44:58.864Z,7336
2017-06-22T10:46:00.568Z,6904
2017-06-22T10:47:02.285Z,6272
2017-06-22T10:48:03.967Z,6112
2017-06-22T10:49:05.683Z,6292
2017-06-22T10:50:07.360Z,6420
2017-06-22T10:51:09.049Z,6564
2017-06-22T10:52:10.735Z,6692
2017-06-22T10:53:12.391Z,6848
2017-06-22T10:54:14.071Z,6932
2017-06-22T10:55:15.756Z,7044
2017-06-22T10:56:17.440Z,7148
2017-06-22T10:57:19.136Z,7376
2017-06-22T10:58:20.820Z,7468
2017-06-22T10:59:22.508Z,7460
2017-06-22T11:00:24.173Z,7260
2017-06-22T11:01:25.910Z,7000
2017-06-22T11:02:27.613Z,7140
2017-06-22T11:03:29.324Z,7528
2017-06-22T11:04:31.682Z,7792
2017-06-22T11:05:33.436Z,7928
2017-06-22T11:06:35.119Z,8012
2017-06-22T11:07:36.803Z,7920
2017-06-22T11:08:38.518Z,8016
2017-06-22T11:09:40.183Z,8256
2017-06-22T11:10:41.846Z,8336
2017-06-22T11:11:43.547Z,8168
2017-06-22T11:12:45.272Z,8084
2017-06-22T11:13:46.946Z,8104
2017-06-22T11:14:48.632Z,8312
2017-06-22T11:15:50.298Z,8316
2017-06-22T11:16:51.949Z,8416
2017-06-22T11:17:53.656Z,8572
2017-06-22T11:18:55.347Z,8664
2017-06-22T11:19:57.025Z,8740
2017-06-22T11:20:58.740Z,8756
2017-06-22T11:22:00.423Z,8684
2017-06-22T11:23:02.106Z,8532
2017-06-22T11:24:03.781Z,8500
2017-06-22T11:25:05.480Z,8484
2017-06-22T11:26:07.167Z,8348
2017-06-22T11:27:09.142Z,8272
2017-06-22T11:28:10.826Z,8224
2017-06-22T11:29:12.487Z,8052
2017-06-22T11:30:14.193Z,8076
2017-06-22T11:31:16.643Z,7976
2017-06-22T11:32:18.868Z,8076
2017-06-22T11:33:20.615Z,8360
2017-06-22T11:34:22.336Z,8660
2017-06-22T11:35:24.022Z,8616
2017-06-22T11:36:25.769Z,8516
2017-06-22T11:37:27.445Z,8372
2017-06-22T11:38:29.148Z,8248
2017-06-22T11:39:30.920Z,8320
2017-06-22T11:40:32.669Z,8592
2017-06-22T11:41:35.128Z,8764
2017-06-22T11:42:36.789Z,8768
2017-06-22T11:43:38.467Z,8968
2017-06-22T11:44:40.152Z,8928
2017-06-22T11:45:41.844Z,8780
2017-06-22T11:46:43.569Z,8800
2017-06-22T11:47:45.241Z,8712
2017-06-22T11:48:46.911Z,8744
2017-06-22T11:49:48.641Z,8776
2017-06-22T11:50:50.326Z,8848
2017-06-22T11:51:52.653Z,8936
2017-06-22T11:52:54.360Z,8916
2017-06-22T11:53:56.059Z,8752
2017-06-22T11:54:57.768Z,8688
2017-06-22T11:55:59.470Z,8660
2017-06-22T11:57:01.145Z,8684
2017-06-22T11:58:02.821Z,8600
2017-06-22T11:59:04.527Z,8700
2017-06-22T12:00:06.193Z,8780
2017-06-22T12:01:07.903Z,8816
2017-06-22T12:02:09.607Z,8884
2017-06-22T12:03:11.319Z,8872
2017-06-22T12:04:13.035Z,8856
2017-06-22T12:05:14.722Z,8832
2017-06-22T12:06:16.401Z,8880
2017-06-22T12:07:18.138Z,9008
2017-06-22T12:08:19.802Z,9108
2017-06-22T12:09:21.507Z,9200
2017-06-22T12:10:23.270Z,9276
2017-06-22T12:11:24.926Z,9420
2017-06-22T12:12:26.595Z,9420
2017-06-22T12:13:28.319Z,9232
2017-06-22T12:14:30.033Z,9144
2017-06-22T12:15:31.716Z,9456
2017-06-22T12:16:33.451Z,9536
2017-06-22T12:17:35.156Z,9612
2017-06-22T12:18:36.840Z,9664
2017-06-22T12:19:38.568Z,9732
2017-06-22T12:20:40.298Z,9436
2017-06-22T12:21:42.000Z,9016
2017-06-22T12:22:43.739Z,8928
2017-06-22T12:23:45.403Z,9288
2017-06-22T12:24:47.090Z,9748
2017-06-22T12:25:48.835Z,9492
2017-06-22T12:26:50.569Z,8960
2017-06-22T12:27:52.279Z,8956
2017-06-22T12:28:53.993Z,9104
2017-06-22T12:29:55.665Z,9956
2017-06-22T12:30:57.341Z,10124
2017-06-22T12:31:59.069Z,10348
2017-06-22T12:33:00.794Z,10784
2017-06-22T12:34:02.529Z,11164
2017-06-22T12:35:04.231Z,11388
2017-06-22T12:36:05.927Z,11304
2017-06-22T12:37:07.627Z,10888
2017-06-22T12:38:09.315Z,10620
2017-06-22T12:39:11.002Z,10020
2017-06-22T12:40:12.687Z,10080
2017-06-22T12:41:14.367Z,10404
2017-06-22T12:42:16.045Z,10804
2017-06-22T12:43:17.706Z,10956
2017-06-22T12:44:20.203Z,10976
2017-06-22T12:45:21.902Z,10860
2017-06-22T12:46:23.578Z,10812
2017-06-22T12:47:25.263Z,10508
2017-06-22T12:48:26.963Z,10424
2017-06-22T12:49:28.678Z,10740
2017-06-22T12:50:30.358Z,10836
2017-06-22T12:51:32.019Z,10952
2017-06-22T12:52:33.704Z,10828
2017-06-22T12:53:35.385Z,10948
2017-06-22T12:54:37.047Z,10616
2017-06-22T12:55:38.796Z,10908
2017-06-22T12:56:40.470Z,11424
2017-06-22T12:57:42.153Z,11548
2017-06-22T12:58:43.843Z,11548
2017-06-22T12:59:45.520Z,11676
2017-06-22T13:00:47.239Z,11908
2017-06-22T13:01:48.954Z,11932
2017-06-22T13:02:51.191Z,12400
2017-06-22T13:03:52.917Z,12668
2017-06-22T13:04:54.567Z,13288
2017-06-22T13:05:56.248Z,13004
2017-06-22T13:06:57.950Z,12496
2017-06-22T13:07:59.632Z,12448
2017-06-22T13:09:01.289Z,12968
2017-06-22T13:10:03.083Z,13316
2017-06-22T13:11:04.761Z,13296
2017-06-22T13:12:06.457Z,13632
2017-06-22T13:13:08.176Z,15920
2017-06-22T13:14:09.916Z,33088
2017-06-22T13:15:11.626Z,55872
2017-06-22T13:16:13.361Z,65216
2017-06-22T13:17:15.102Z,64352
2017-06-22T13:18:16.797Z,69888
2017-06-22T13:19:18.485Z,68704
2017-06-22T13:20:20.198Z,68640
2017-06-22T13:21:21.861Z,69152
2017-06-22T13:22:23.600Z,73536
2017-06-22T13:23:25.283Z,73440
2017-06-22T13:24:26.974Z,72064
2017-06-22T13:25:28.714Z,69120
2017-06-22T13:26:30.390Z,61952
2017-06-22T13:27:32.100Z,56224
2017-06-22T13:28:33.842Z,56736
2017-06-22T13:29:35.529Z,64672
2017-06-22T13:30:37.249Z,66752
2017-06-22T13:31:38.965Z,58752
2017-06-22T13:32:40.712Z,63392
2017-06-22T13:33:42.492Z,65856
2017-06-22T13:34:44.228Z,65088
2017-06-22T13:35:45.931Z,62048
2017-06-22T13:36:47.646Z,64512
2017-06-22T13:37:49.363Z,65568
2017-06-22T13:38:51.040Z,65248
2017-06-22T13:39:52.807Z,62304
2017-06-22T13:40:54.489Z,56384
2017-06-22T13:41:56.204Z,55328
2017-06-22T13:42:57.890Z,58016
2017-06-22T13:43:59.610Z,60768
2017-06-22T13:45:01.294Z,65280
2017-06-22T13:46:03.023Z,61024
2017-06-22T13:47:04.746Z,62528
2017-06-22T13:48:06.455Z,58624
2017-06-22T13:49:08.174Z,63392
2017-06-22T13:50:10.031Z,58112
2017-06-22T13:51:11.744Z,57408
2017-06-22T13:52:13.463Z,55584
2017-06-22T13:53:15.157Z,49952
2017-06-22T13:54:16.822Z,53280
2017-06-22T13:55:18.527Z,53664
2017-06-22T13:56:20.224Z,52000
2017-06-22T13:57:21.911Z,52224
2017-06-22T13:58:23.590Z,54272
2017-06-22T13:59:25.273Z,55840
2017-06-22T14:00:27.000Z,57088